Time;durP1;ratioP1;P1;durP2;ratioP2;P2;SDS_P1;SDS_P2;PMS_P1;PMS_P2;Temp;Humidity;BMP_temperature;BMP_pressure;BME280_temperature;BME280_humidity;BME280_pressure;Samples;Min_cycle;Max_cycle;Signal;HPM_P1;HPM_P2
2023/09/08 00:00:02;;;;;;;4.07;2.78;;;;;;;;;;5010696;28;20101;-83
2023/09/08 00:02:29;;;;;;;3.10;2.22;;;;;;;;;;5010543;28;20022;-83
2023/09/08 00:04:55;;;;;;;4.60;2.45;;;;;;;;;;5010277;28;20045;-82
2023/09/08 00:07:21;;;;;;;4.95;2.38;;;;;;;;;;5009150;28;20057;-83
2023/09/08 00:09:47;;;;;;;3.55;2.95;;;;;;;;;;5010194;28;20026;-83
2023/09/08 00:12:13;;;;;;;5.05;2.60;;;;;;;;;;5010389;28;20454;-82
2023/09/08 00:14:39;;;;;;;8.85;3.15;;;;;;;;;;5010144;28;20026;-83
2023/09/08 00:17:05;;;;;;;3.40;2.85;;;;;;;;;;5010164;28;20068;-83
2023/09/08 00:19:31;;;;;;;3.35;2.55;;;;;;;;;;5010459;28;20066;-83
2023/09/08 00:21:58;;;;;;;2.92;2.40;;;;;;;;;;5009876;28;20080;-82
2023/09/08 00:24:24;;;;;;;3.55;2.75;;;;;;;;;;5010177;28;20506;-82
2023/09/08 00:26:50;;;;;;;7.18;2.72;;;;;;;;;;5010141;28;20057;-83
2023/09/08 00:29:16;;;;;;;4.18;2.40;;;;;;;;;;5009822;28;20085;-82
2023/09/08 00:31:42;;;;;;;4.78;2.75;;;;;;;;;;5005834;28;20018;-82
2023/09/08 00:34:08;;;;;;;5.18;2.53;;;;;;;;;;5010142;28;20022;-82
2023/09/08 00:36:34;;;;;;;4.40;2.10;;;;;;;;;;5010167;28;20052;-82
2023/09/08 00:39:00;;;;;;;3.55;2.35;;;;;;;;;;5015912;28;20025;-82
2023/09/08 00:41:26;;;;;;;5.88;2.63;;;;;;;;;;5023653;28;20033;-83
2023/09/08 00:43:52;;;;;;;8.38;2.70;;;;;;;;;;5009731;28;20503;-83
2023/09/08 00:46:18;;;;;;;3.63;2.72;;;;;;;;;;5009688;28;20169;-82
2023/09/08 00:48:45;;;;;;;6.03;2.53;;;;;;;;;;5009769;28;20045;-82
2023/09/08 00:51:11;;;;;;;3.42;2.35;;;;;;;;;;5009268;28;20022;-82
2023/09/08 00:53:37;;;;;;;3.47;2.42;;;18.80;84.20;;;;;;5009659;28;20499;-83
2023/09/08 00:56:03;;;;;;;5.80;1.95;;;;;;;;;;5002943;28;20558;-82
2023/09/08 00:58:29;;;;;;;4.38;3.28;;;18.70;82.70;;;;;;5007918;28;20033;-82
2023/09/08 01:00:58;;;;;;;4.88;2.10;;;;;;;;;;5009333;28;20072;-83
2023/09/08 01:03:25;;;;;;;6.93;2.65;;;18.40;85.90;;;;;;5009580;28;20064;-82
2023/09/08 01:05:51;;;;;;;5.25;2.85;;;18.50;84.90;;;;;;5008104;28;20036;-82
2023/09/08 01:08:17;;;;;;;3.65;2.55;;;;;;;;;;5008016;28;20056;-83
2023/09/08 01:10:43;;;;;;;4.80;2.60;;;;;;;;;;5007302;28;20030;-82
2023/09/08 01:13:09;;;;;;;2.45;2.25;;;;;;;;;;5009426;28;20475;-83
2023/09/08 01:15:35;;;;;;;3.92;2.25;;;;;;;;;;5009377;28;20033;-82
2023/09/08 01:18:01;;;;;;;8.20;2.92;;;;;;;;;;5009307;28;20058;-82
2023/09/08 01:20:59;;;;;;;7.82;2.88;;;18.30;86.30;;;;;;5020094;28;20029;-82
2023/09/08 01:23:38;;;;;;;4.45;2.60;;;18.20;86.90;;;;;;5007889;28;20692;-82
2023/09/08 01:26:10;;;;;;;3.78;2.15;;;18.10;86.90;;;;;;5008737;28;20394;-82
2023/09/08 01:28:36;;;;;;;4.15;2.90;;;;;;;;;;5018329;28;20025;-82
2023/09/08 01:31:02;;;;;;;4.45;2.67;;;;;;;;;;5008927;28;20075;-82
2023/09/08 01:33:28;;;;;;;5.43;2.53;;;;;;;;;;5009188;28;20032;-82
2023/09/08 01:35:55;;;;;;;4.63;2.58;;;;;;;;;;5009361;28;20033;-83
2023/09/08 01:38:21;;;;;;;7.93;2.75;;;18.20;89.80;;;;;;5007685;28;20056;-82
2023/09/08 01:40:47;;;;;;;8.00;2.78;;;;;;;;;;5009357;28;20025;-82
2023/09/08 01:43:13;;;;;;;5.93;3.25;;;;;;;;;;4995997;28;20379;-83
2023/09/08 01:45:39;;;;;;;3.72;2.25;;;;;;;;;;5007325;28;20033;-83
2023/09/08 01:48:06;;;;;;;5.93;2.60;;;;;;;;;;4996524;28;20022;-83
2023/09/08 01:50:32;;;;;;;5.43;3.30;;;;;;;;;;5015430;28;20499;-83
2023/09/08 01:52:58;;;;;;;4.47;3.58;;;;;;;;;;5008376;28;20026;-83
2023/09/08 01:55:24;;;;;;;9.52;2.95;;;;;;;;;;5004086;28;20105;-82
2023/09/08 01:57:50;;;;;;;4.65;2.20;;;;;;;;;;5003702;28;20030;-82
2023/09/08 02:00:16;;;;;;;5.40;2.97;;;17.90;90.50;;;;;;5008766;28;20076;-82
2023/09/08 02:02:42;;;;;;;6.07;3.77;;;;;;;;;;5007926;28;20030;-82
2023/09/08 02:05:09;;;;;;;4.00;2.70;;;;;;;;;;5009069;28;20632;-82
2023/09/08 02:07:35;;;;;;;4.72;2.80;;;;;;;;;;5009066;28;20521;-83
2023/09/08 02:10:01;;;;;;;4.78;2.80;;;;;;;;;;5008679;28;20116;-82
2023/09/08 02:12:27;;;;;;;3.88;2.53;;;;;;;;;;5008769;28;20097;-82
2023/09/08 02:14:53;;;;;;;5.65;2.50;;;;;;;;;;5007182;28;20033;-83
2023/09/08 02:17:19;;;;;;;4.43;2.50;;;;;;;;;;5005077;28;20049;-82
2023/09/08 02:19:45;;;;;;;3.95;2.60;;;;;;;;;;5006463;28;20053;-83
2023/09/08 02:22:11;;;;;;;3.42;2.30;;;;;;;;;;5008611;28;20368;-82
2023/09/08 02:24:37;;;;;;;4.70;2.60;;;;;;;;;;5008379;28;20079;-83
2023/09/08 02:27:03;;;;;;;4.38;2.50;;;;;;;;;;5008245;28;20014;-82
2023/09/08 02:29:29;;;;;;;5.45;2.78;;;;;;;;;;5008534;28;20018;-82
2023/09/08 02:31:55;;;;;;;3.50;2.42;;;;;;;;;;5005138;28;20034;-82
2023/09/08 02:34:21;;;;;;;11.32;2.80;;;;;;;;;;5002976;28;20407;-82
2023/09/08 02:36:47;;;;;;;5.15;2.50;;;;;;;;;;5008552;28;20048;-83
2023/09/08 02:39:14;;;;;;;6.55;2.88;;;;;;;;;;5011189;28;20029;-82
2023/09/08 02:41:40;;;;;;;3.88;2.38;;;;;;;;;;5012430;28;20041;-82
2023/09/08 02:44:06;;;;;;;4.82;2.67;;;;;;;;;;5012301;28;20025;-82
2023/09/08 02:46:32;;;;;;;4.90;2.50;;;;;;;;;;5010938;28;20040;-82
2023/09/08 02:48:58;;;;;;;3.92;2.35;;;;;;;;;;5011956;28;20402;-82
2023/09/08 02:51:24;;;;;;;4.68;2.33;;;;;;;;;;5012458;28;20439;-82
2023/09/08 02:53:50;;;;;;;3.95;2.58;;;;;;;;;;5021204;28;20386;-83
2023/09/08 02:56:16;;;;;;;2.88;2.20;;;;;;;;;;5011850;28;20038;-82
2023/09/08 02:58:42;;;;;;;5.13;3.72;;;;;;;;;;5012078;28;20785;-82
2023/09/08 03:01:15;;;;;;;4.03;2.40;;;16.90;97.30;;;;;;5010387;28;20056;-82
2023/09/08 03:03:42;;;;;;;3.78;2.53;;;17.00;90.40;;;;;;5011870;28;20125;-82
2023/09/08 03:06:09;;;;;;;4.35;2.60;;;16.90;90.40;;;;;;5011652;28;20029;-82
2023/09/08 03:08:36;;;;;;;3.00;2.03;;;;;;;;;;5010396;28;20574;-83
2023/09/08 03:11:03;;;;;;;4.45;2.10;;;;;;;;;;5007365;28;20038;-82
2023/09/08 03:13:29;;;;;;;5.03;2.63;;;;;;;;;;5011585;28;20480;-82
2023/09/08 03:15:56;;;;;;;4.90;3.33;;;;;;;;;;5011332;28;20113;-83
2023/09/08 03:18:22;;;;;;;7.93;2.85;;;;;;;;;;5006506;28;20046;-82
2023/09/08 03:20:50;;;;;;;2.50;1.65;;;16.60;91.40;;;;;;5007303;28;20088;-82
2023/09/08 03:23:16;;;;;;;5.03;2.42;;;;;;;;;;5010886;28;20482;-83
2023/09/08 03:25:42;;;;;;;3.10;2.38;;;;;;;;;;5011388;28;20460;-82
2023/09/08 03:28:08;;;;;;;3.85;2.47;;;;;;;;;;5009988;28;20498;-82
2023/09/08 03:30:34;;;;;;;3.90;2.55;;;;;;;;;;5011786;28;20114;-82
2023/09/08 03:33:00;;;;;;;6.80;2.85;;;;;;;;;;5012526;28;20156;-81
2023/09/08 03:35:26;;;;;;;2.95;2.05;;;;;;;;;;5011542;28;20022;-82
2023/09/08 03:37:52;;;;;;;2.97;2.10;;;;;;;;;;5010874;28;20371;-81
2023/09/08 03:40:18;;;;;;;3.65;1.83;;;;;;;;;;5011430;28;20076;-82
2023/09/08 03:42:44;;;;;;;7.07;2.78;;;16.40;96.90;;;;;;5011140;28;20030;-82
2023/09/08 03:45:10;;;;;;;4.65;2.70;;;;;;;;;;5011121;28;20774;-82
2023/09/08 03:47:36;;;;;;;4.33;2.80;;;;;;;;;;5011157;28;20652;-82
2023/09/08 03:50:02;;;;;;;4.28;2.28;;;;;;;;;;5010157;28;20880;-83
2023/09/08 03:52:28;;;;;;;4.97;2.17;;;;;;;;;;5010602;28;20084;-82
2023/09/08 03:54:54;;;;;;;3.92;2.35;;;;;;;;;;5011391;28;20407;-82
2023/09/08 03:57:20;;;;;;;4.72;3.20;;;;;;;;;;5013042;28;20034;-82
2023/09/08 03:59:47;;;;;;;3.30;2.25;;;;;;;;;;5009457;28;20058;-82
2023/09/08 04:02:12;;;;;;;4.22;2.45;;;;;;;;;;5010835;28;20045;-82
2023/09/08 04:04:38;;;;;;;4.25;2.85;;;;;;;;;;5011074;28;20100;-83
2023/09/08 04:07:04;;;;;;;4.95;2.95;;;;;;;;;;5010205;28;20057;-82
2023/09/08 04:09:31;;;;;;;4.72;2.72;;;;;;;;;;5010664;28;20029;-82
2023/09/08 04:11:57;;;;;;;3.90;2.90;;;;;;;;;;5011202;28;20049;-82
2023/09/08 04:14:26;;;;;;;3.15;2.13;;;;;;;;;;5010479;28;20026;-83
2023/09/08 04:16:53;;;;;;;3.85;2.72;;;;;;;;;;5009822;28;20637;-82
2023/09/08 04:19:19;;;;;;;7.65;3.30;;;;;;;;;;5007188;28;20069;-82
2023/09/08 04:21:45;;;;;;;4.25;3.00;;;;;;;;;;5007550;28;20494;-82
2023/09/08 04:24:11;;;;;;;5.25;3.00;;;;;;;;;;5009209;28;20037;-83
2023/09/08 04:26:37;;;;;;;5.40;3.03;;;;;;;;;;5009982;28;20486;-82
2023/09/08 04:29:03;;;;;;;6.35;3.17;;;;;;;;;;5010477;28;20026;-83
2023/09/08 04:31:29;;;;;;;6.15;3.15;;;;;;;;;;5009823;28;20034;-83
2023/09/08 04:33:55;;;;;;;6.03;3.25;;;;;;;;;;5006995;28;20033;-82
2023/09/08 04:36:21;;;;;;;8.55;3.13;;;;;;;;;;5008169;28;20395;-82
2023/09/08 04:38:47;;;;;;;9.52;3.22;;;;;;;;;;5009858;28;20032;-82
2023/09/08 04:41:13;;;;;;;4.20;2.72;;;;;;;;;;5010002;28;20061;-83
2023/09/08 04:43:39;;;;;;;5.10;2.80;;;;;;;;;;5008847;28;20060;-83
2023/09/08 04:46:05;;;;;;;4.60;2.55;;;;;;;;;;5009971;28;20402;-83
2023/09/08 04:48:31;;;;;;;7.70;3.47;;;;;;;;;;5010108;28;20483;-82
2023/09/08 04:50:57;;;;;;;4.00;2.85;;;;;;;;;;5009502;28;20060;-82
2023/09/08 04:53:23;;;;;;;7.72;3.63;;;;;;;;;;5008475;28;20034;-82
2023/09/08 04:55:49;;;;;;;4.18;2.75;;;;;;;;;;5010129;28;20088;-82
2023/09/08 04:58:15;;;;;;;4.80;2.75;;;;;;;;;;5009867;28;20522;-83
2023/09/08 05:00:41;;;;;;;2.45;2.25;;;;;;;;;;5003399;28;20030;-82
2023/09/08 05:03:07;;;;;;;3.70;2.58;;;;;;;;;;4997889;28;20081;-82
2023/09/08 05:05:33;;;;;;;5.65;3.22;;;;;;;;;;5006509;28;20318;-82
2023/09/08 05:07:59;;;;;;;5.72;2.92;;;;;;;;;;5003371;28;20835;-82
2023/09/08 05:10:25;;;;;;;4.60;2.55;;;;;;;;;;5005117;28;20029;-82
2023/09/08 05:12:51;;;;;;;4.03;2.30;;;;;;;;;;5009670;28;20112;-83
2023/09/08 05:15:20;;;;;;;9.45;2.83;;;;;;;;;;5008089;28;20447;-81
2023/09/08 05:17:46;;;;;;;3.85;2.63;;;;;;;;;;5010098;28;20545;-82
2023/09/08 05:20:12;;;;;;;4.90;2.90;;;;;;;;;;5008647;28;20100;-81
2023/09/08 05:22:38;;;;;;;5.15;3.28;;;;;;;;;;5006709;28;20380;-82
2023/09/08 05:25:04;;;;;;;8.00;3.33;;;16.10;99.90;;;;;;5007391;28;20072;-82
2023/09/08 05:27:31;;;;;;;6.22;2.97;;;;;;;;;;5003140;28;20018;-83
2023/09/08 05:29:58;;;;;;;8.05;3.40;;;;;;;;;;5003770;28;20491;-82
2023/09/08 05:32:24;;;;;;;3.80;2.63;;;;;;;;;;5009417;28;20049;-83
2023/09/08 05:34:50;;;;;;;5.13;2.75;;;;;;;;;;5006276;28;20149;-82
2023/09/08 05:37:16;;;;;;;5.28;3.45;;;;;;;;;;5008544;28;20213;-83
2023/09/08 05:39:42;;;;;;;8.07;3.30;;;16.30;97.50;;;;;;5007750;28;20034;-82
2023/09/08 05:42:08;;;;;;;6.82;3.03;;;;;;;;;;5005481;28;20030;-82
2023/09/08 05:44:33;;;;;;;4.75;2.83;;;15.80;99.90;;;;;;5009275;28;20022;-82
2023/09/08 05:46:59;;;;;;;4.38;3.33;;;;;;;;;;5008309;28;20112;-83
2023/09/08 05:49:25;;;;;;;4.68;3.03;;;;;;;;;;5008052;28;20018;-78
2023/09/08 05:51:51;;;;;;;3.72;2.75;;;;;;;;;;4999537;28;20041;-78
2023/09/08 05:54:17;;;;;;;18.02;3.22;;;;;;;;;;5005589;28;20519;-77
2023/09/08 05:56:44;;;;;;;8.43;3.38;;;17.10;90.50;;;;;;5010831;28;20057;-77
2023/09/08 05:59:10;;;;;;;4.90;3.08;;;;;;;;;;5007285;28;20049;-77
2023/09/08 06:01:36;;;;;;;5.47;3.40;;;;;;;;;;5007163;28;20044;-76
2023/09/08 06:04:03;;;;;;;5.82;3.83;;;;;;;;;;5008058;28;20614;-77
2023/09/08 06:06:29;;;;;;;4.60;3.05;;;;;;;;;;5008383;28;20030;-77
2023/09/08 06:08:55;;;;;;;11.05;4.38;;;;;;;;;;5012550;28;20021;-78
2023/09/08 06:11:21;;;;;;;4.07;3.50;;;;;;;;;;5013482;28;20762;-79
2023/09/08 06:13:47;;;;;;;4.82;3.45;;;25.10;58.70;;;;;;5010439;28;20021;-77
2023/09/08 06:16:13;;;;;;;5.05;2.70;;;;;;;;;;5011348;28;20232;-77
2023/09/08 06:18:43;;;;;;;4.47;2.90;;;;;;;;;;5011229;28;20087;-78
2023/09/08 06:21:10;;;;;;;4.80;2.83;;;;;;;;;;5011197;28;20025;-78
2023/09/08 06:23:36;;;;;;;7.97;2.85;;;;;;;;;;5011626;28;20076;-77
2023/09/08 06:26:02;;;;;;;4.33;3.03;;;;;;;;;;5010188;28;20060;-77
2023/09/08 06:28:28;;;;;;;4.32;2.60;;;27.60;56.20;;;;;;5010604;28;20026;-78
2023/09/08 06:30:54;;;;;;;6.10;4.07;;;;;;;;;;5011389;28;20029;-78
2023/09/08 06:33:22;;;;;;;4.97;4.13;;;;;;;;;;5011010;28;20577;-78
2023/09/08 06:35:48;;;;;;;4.60;3.08;;;33.70;42.90;;;;;;5010591;28;20057;-79
2023/09/08 06:38:14;;;;;;;3.57;2.77;;;;;;;;;;5010591;28;20065;-88
2023/09/08 06:40:39;;;;;;;4.25;2.88;;;36.70;43.00;;;;;;5011316;28;20029;-87
2023/09/08 06:43:05;;;;;;;4.20;2.93;;;;;;;;;;5006278;28;20044;-85
2023/09/08 06:45:31;;;;;;;6.78;2.88;;;;;;;;;;5009186;28;20029;-87
2023/09/08 06:47:59;;;;;;;3.17;2.88;;;;;;;;;;5019100;28;20030;-85
2023/09/08 06:50:26;;;;;;;5.63;2.83;;;;;;;;;;5010994;28;20034;-84
2023/09/08 06:52:51;;;;;;;;;;;41.40;29.90;;;;;;5012203;28;20030;-88
2023/09/08 06:55:17;;;;;;;3.80;2.90;;;42.90;33.70;;;;;;5020246;28;20259;-89
2023/09/08 06:57:44;;;;;;;5.00;2.97;;;43.90;27.30;;;;;;5008446;28;20115;-84
2023/09/08 07:00:11;;;;;;;7.10;2.63;;;44.10;31.10;;;;;;5009844;28;20069;-83
2023/09/08 07:02:37;;;;;;;4.43;2.38;;;44.80;29.80;;;;;;5012778;28;20037;-83
2023/09/08 07:05:07;;;;;;;2.92;2.63;;;46.10;26.50;;;;;;5015344;28;20022;-83
2023/09/08 07:07:34;;;;;;;3.08;2.30;;;;;;;;;;5013820;28;20509;-84
2023/09/08 07:09:59;;;;;;;2.40;2.20;;;47.40;29.90;;;;;;5014184;28;20030;-84
2023/09/08 07:12:25;;;;;;;3.13;2.13;;;;;;;;;;5015853;28;20394;-85
2023/09/08 07:14:51;;;;;;;4.30;2.47;;;;;;;;;;5008053;28;20396;-83
2023/09/08 07:17:17;;;;;;;4.15;2.25;;;49.30;28.00;;;;;;5010173;28;20061;-84
2023/09/08 07:19:43;;;;;;;2.35;2.15;;;;;;;;;;5003645;28;20030;-84
2023/09/08 07:22:09;;;;;;;3.03;2.08;;;50.70;26.70;;;;;;5001777;28;20430;-84
2023/09/08 07:24:35;;;;;;;3.05;2.05;;;;;;;;;;5009883;28;20025;-83
2023/09/08 07:27:01;;;;;;;3.22;2.13;;;;;;;;;;5008151;28;20053;-84
2023/09/08 07:29:27;;;;;;;1.90;1.80;;;;;;;;;;5004941;28;20038;-84
2023/09/08 07:31:53;;;;;;;6.30;2.30;;;;;;;;;;5009922;28;20164;-84
2023/09/08 07:34:19;;;;;;;2.20;2.00;;;;;;;;;;5014480;28;20034;-84
2023/09/08 07:36:45;;;;;;;2.60;1.80;;;53.40;23.50;;;;;;5008474;28;20505;-87
2023/09/08 07:39:10;;;;;;;3.00;2.45;;;54.00;22.90;;;;;;5003537;28;20100;-85
2023/09/08 07:41:39;;;;;;;2.72;2.42;;;;;;;;;;5010285;28;20060;-85
2023/09/08 07:44:05;;;;;;;6.15;2.83;;;;;;;;;;5011727;28;20041;-87
2023/09/08 07:46:31;;;;;;;6.53;2.47;;;54.80;23.70;;;;;;5016394;28;20057;-87
2023/09/08 07:48:58;;;;;;;2.40;2.20;;;55.20;21.20;;;;;;5003108;28;20499;-86
2023/09/08 07:51:24;;;;;;;5.18;3.15;;;;;;;;;;5017916;28;20029;-85
2023/09/08 07:53:51;;;;;;;3.28;2.20;;;;;;;;;;5010338;28;20061;-85
2023/09/08 07:56:17;;;;;;;2.42;2.17;;;;;;;;;;5010890;28;20145;-84
2023/09/08 07:58:43;;;;;;;7.25;3.40;;;;;;;;;;5008426;28;20129;-85
2023/09/08 08:01:09;;;;;;;3.95;2.25;;;;;;;;;;5011636;28;20583;-85
2023/09/08 08:03:35;;;;;;;3.13;2.05;;;;;;;;;;5006651;28;20089;-85
2023/09/08 08:06:01;;;;;;;3.20;2.72;;;;;;;;;;5007533;28;20034;-85
2023/09/08 08:08:27;;;;;;;3.50;2.08;;;58.10;22.30;;;;;;5005717;28;20872;-88
2023/09/08 08:10:52;;;;;;;2.58;2.10;;;57.60;24.60;;;;;;5009392;28;20072;-93
2023/09/08 08:13:18;;;;;;;2.03;1.80;;;57.20;24.70;;;;;;5018667;28;20029;-93
2023/09/08 08:15:47;;;;;;;5.30;1.80;;;57.60;20.30;;;;;;5012534;28;20029;-87
2023/09/08 08:18:13;;;;;;;5.28;1.88;;;;;;;;;;5009493;28;20099;-90
2023/09/08 08:20:39;;;;;;;3.38;1.40;;;58.20;19.70;;;;;;5008875;28;20026;-84
2023/09/08 08:23:06;;;;;;;3.20;3.00;;;58.90;19.70;;;;;;5010271;28;20029;-84
2023/09/08 08:25:32;;;;;;;4.75;1.70;;;59.60;20.90;;;;;;5011603;28;20030;-84
2023/09/08 08:28:00;;;;;;;2.22;2.03;;;59.60;24.00;;;;;;5009482;28;20033;-85
2023/09/08 08:30:26;;;;;;;1.75;1.65;;;;;;;;;;5006523;28;20068;-85
2023/09/08 08:32:53;;;;;;;2.13;2.03;;;60.50;23.80;;;;;;5002550;28;21243;-87
2023/09/08 08:35:22;;;;;;;2.97;2.22;;;61.00;21.30;;;;;;5012683;28;20022;-88
2023/09/08 08:37:48;;;;;;;2.15;2.03;;;60.90;23.20;;;;;;5012944;28;20514;-88
2023/09/08 08:40:14;;;;;;;2.35;2.15;;;;;;;;;;5010870;28;20105;-87
2023/09/08 08:42:40;;;;;;;2.35;2.08;;;61.30;18.90;;;;;;5011868;28;20675;-88
2023/09/08 08:45:07;;;;;;;2.30;2.13;;;61.20;18.50;;;;;;5010946;28;20098;-90
2023/09/08 08:47:33;;;;;;;2.65;2.45;;;61.70;19.60;;;;;;5015038;28;20033;-88
2023/09/08 08:49:59;;;;;;;2.42;2.10;;;61.50;18.80;;;;;;5008464;28;20045;-89
2023/09/08 08:52:26;;;;;;;2.35;2.10;;;61.60;18.80;;;;;;5013881;28;20398;-89
2023/09/08 08:54:52;;;;;;;2.60;2.40;;;61.60;23.20;;;;;;5016705;28;20337;-89
2023/09/08 08:57:18;;;;;;;2.42;2.15;;;62.40;23.20;;;;;;5007802;28;20499;-90
2023/09/08 08:59:45;;;;;;;2.60;2.40;;;62.20;20.80;;;;;;5006153;28;20029;-91
2023/09/08 09:02:12;;;;;;;3.17;2.08;;;61.90;18.60;;;;;;5006821;28;20062;-90
2023/09/08 09:04:38;;;;;;;2.60;2.40;;;62.30;18.40;;;;;;5003367;28;20391;-91
2023/09/08 09:07:06;;;;;;;4.15;2.08;;;62.70;20.90;;;;;;5012044;28;20033;-91
2023/09/08 09:09:32;;;;;;;1.92;1.83;;;;;;;;;;5003099;28;20030;-89
2023/09/08 09:11:58;;;;;;;2.30;2.10;;;62.50;23.00;;;;;;5007777;28;20022;-90
2023/09/08 09:14:24;;;;;;;3.00;2.50;;;;;;;;;;5002566;28;20019;-89
2023/09/08 09:16:50;;;;;;;4.10;2.58;;;;;;;;;;5016878;28;20149;-90
2023/09/08 09:19:31;;;;;;;2.40;2.13;;;60.80;19.60;;;;;;5008327;28;20116;-90
2023/09/08 09:21:57;;;;;;;2.50;2.28;;;;;;;;;;5010069;28;20513;-90
2023/09/08 09:24:43;;;;;;;2.50;2.22;;;61.90;22.20;;;;;;5018845;28;20014;-91
2023/09/08 09:27:10;;;;;;;3.10;2.80;;;63.00;19.70;;;;;;5013985;28;20105;-90
2023/09/08 09:29:50;;;;;;;2.45;2.28;;;63.90;18.70;;;;;;5001712;28;20045;-85
2023/09/08 09:32:16;;;;;;;2.70;2.38;;;64.50;18.40;;;;;;5011249;28;20034;-86
2023/09/08 09:34:53;;;;;;;2.95;2.70;;;;;;;;;;5011411;28;20513;-86
2023/09/08 09:37:19;;;;;;;2.60;2.40;;;;;;;;;;5004972;28;20483;-87
2023/09/08 09:39:53;;;;;;;5.93;3.05;;;64.70;18.10;;;;;;5004226;28;20057;-86
2023/09/08 09:42:20;;;;;;;;;;;64.70;18.60;;;;;;5015099;28;20022;-87
2023/09/08 09:44:51;;;;;;;2.53;2.33;;;65.00;20.30;;;;;;5014137;28;19913;-84
2023/09/08 09:47:17;;;;;;;2.60;2.40;;;;;;;;;;5009889;28;20080;-86
2023/09/08 09:49:47;;;;;;;2.80;2.55;;;64.50;17.90;;;;;;4998714;28;20680;-84
2023/09/08 09:52:19;;;;;;;6.25;2.60;;;64.40;22.60;;;;;;5010990;28;20112;-84
2023/09/08 09:54:45;;;;;;;2.47;2.30;;;64.40;22.90;;;;;;5010421;28;20028;-83
2023/09/08 09:57:14;;;;;;;3.78;2.80;;;65.00;18.70;;;;;;5005930;28;20042;-84
2023/09/08 09:59:43;;;;;;;2.95;2.65;;;64.80;17.70;;;;;;4999996;28;20040;-83
2023/09/08 10:02:12;;;;;;;2.28;2.17;;;64.40;17.70;;;;;;5014538;28;20044;-83
2023/09/08 10:04:40;;;;;;;5.18;2.67;;;64.50;17.90;;;;;;5008415;28;20026;-83
2023/09/08 10:07:07;;;;;;;2.95;2.65;;;;;;;;;;5016581;28;20620;-82
2023/09/08 10:09:33;;;;;;;3.15;2.60;;;;;;;;;;5001364;28;20038;-83
2023/09/08 10:12:04;;;;;;;5.88;2.65;;;64.70;17.90;;;;;;5008379;28;20054;-82
2023/09/08 10:14:31;;;;;;;2.90;2.63;;;64.00;17.70;;;;;;5011284;28;20368;-82
2023/09/08 10:16:59;;;;;;;2.58;2.45;;;64.30;23.10;;;;;;5006187;28;20104;-83
2023/09/08 10:19:26;;;;;;;3.35;3.05;;;;;;;;;;5015054;28;20521;-83
2023/09/08 10:21:57;;;;;;;2.22;2.13;;;63.70;23.30;;;;;;5015531;28;20029;-82
2023/09/08 10:24:29;;;;;;;5.90;2.90;;;63.80;17.90;;;;;;5026792;28;20025;-82
2023/09/08 10:27:11;;;;;;;6.45;2.83;;;63.30;17.80;;;;;;5013003;28;20033;-82
2023/09/08 10:29:40;;;;;;;5.25;2.17;;;63.80;17.90;;;;;;5011602;28;20029;-82
2023/09/08 10:32:08;;;;;;;7.30;2.97;;;63.90;17.80;;;;;;5018179;28;20505;-83
2023/09/08 10:34:35;;;;;;;2.10;2.00;;;63.70;17.70;;;;;;5021251;28;20120;-82
2023/09/08 10:37:02;;;;;;;2.65;2.45;;;;;;;;;;5006717;28;20465;-82
2023/09/08 10:39:29;;;;;;;2.30;2.10;;;63.60;23.20;;;;;;5004617;28;20467;-82
2023/09/08 10:42:17;;;;;;;2.67;2.25;;;63.20;22.90;;;;;;5018592;28;20113;-81
2023/09/08 10:44:51;;;;;;;2.75;2.55;;;62.90;17.90;;;;;;5007991;28;20030;-82
2023/09/08 10:47:31;;;;;;;2.25;2.13;;;63.20;17.90;;;;;;5008227;28;20399;-81
2023/09/08 10:49:58;;;;;;;2.22;2.13;;;63.30;21.40;;;;;;5000612;28;20042;-81
2023/09/08 10:52:25;;;;;;;2.88;2.58;;;63.40;18.10;;;;;;5009920;28;20025;-80
2023/09/08 10:54:52;;;;;;;2.60;2.22;;;62.80;18.00;;;;;;5000621;28;20034;-82
2023/09/08 10:57:21;;;;;;;3.78;2.53;;;63.40;20.50;;;;;;5008974;28;20033;-81
2023/09/08 11:00:11;;;;;;;2.95;2.55;;;62.90;21.30;;;;;;5006856;28;20026;-81
2023/09/08 11:02:38;;;;;;;2.58;2.38;;;;;;;;;;5008147;28;20087;-81
2023/09/08 11:05:11;;;;;;;2.50;2.30;;;62.60;22.30;;;;;;5010315;28;20235;-81
2023/09/08 11:07:38;;;;;;;2.50;2.30;;;62.70;23.00;;;;;;5007938;28;20510;-80
2023/09/08 11:10:04;;;;;;;3.17;2.45;;;62.20;19.50;;;;;;5003385;28;20061;-81
2023/09/08 11:12:31;;;;;;;2.00;1.85;;;61.60;18.30;;;;;;5011221;28;20583;-81
2023/09/08 11:15:00;;;;;;;2.33;1.95;;;61.40;18.30;;;;;;5009268;28;20036;-80
2023/09/08 11:17:27;;;;;;;2.33;1.88;;;60.20;18.30;;;;;;5009158;28;20522;-81
2023/09/08 11:19:54;;;;;;;4.20;1.80;;;58.10;18.80;;;;;;5010709;28;20072;-81
2023/09/08 11:22:25;;;;;;;2.13;1.63;;;53.80;24.00;;;;;;5008861;28;20028;-80
2023/09/08 11:24:56;;;;;;;2.63;1.63;;;50.60;19.80;;;;;;5011175;28;20088;-80
2023/09/08 11:27:23;;;;;;;2.70;1.60;;;47.50;20.90;;;;;;5011571;28;20030;-80
2023/09/08 11:29:49;;;;;;;1.70;1.48;;;45.40;22.10;;;;;;5007270;28;20021;-80
2023/09/08 11:32:15;;;;;;;2.28;1.42;;;43.90;24.40;;;;;;5008520;28;20060;-80
2023/09/08 11:34:41;;;;;;;2.70;1.52;;;;;;;;;;5008667;28;20026;-87
2023/09/08 11:37:16;;;;;;;2.20;1.92;;;41.20;31.90;;;;;;5012952;28;20120;-85
2023/09/08 11:39:42;;;;;;;3.08;2.00;;;;;;;;;;5001700;28;20018;-84
2023/09/08 11:42:09;;;;;;;3.88;2.38;;;;;;;;;;5015136;28;20084;-83
2023/09/08 11:44:35;;;;;;;2.53;1.80;;;;;;;;;;5008105;28;20034;-85
2023/09/08 11:47:03;;;;;;;1.77;1.58;;;38.90;26.30;;;;;;5011772;28;20045;-85
2023/09/08 11:49:34;;;;;;;2.72;1.73;;;38.50;26.60;;;;;;5007884;28;20028;-85
2023/09/08 11:52:00;;;;;;;2.53;1.92;;;;;;;;;;5007032;28;20052;-86
2023/09/08 11:54:26;;;;;;;6.25;1.90;;;;;;;;;;5007986;28;20026;-85
2023/09/08 11:56:52;;;;;;;;;;;38.50;26.90;;;;;;5015292;28;20129;-80
2023/09/08 11:59:18;;;;;;;3.33;2.15;;;;;;;;;;5007721;28;19916;-79
2023/09/08 12:01:44;;;;;;;;;;;38.40;27.60;;;;;;5016861;28;20241;-81
2023/09/08 12:04:19;;;;;;;5.10;2.50;;;38.20;27.60;;;;;;5018846;28;19906;-81
2023/09/08 12:06:45;;;;;;;4.35;1.95;;;;;;;;;;5007491;28;20029;-82
2023/09/08 12:09:11;;;;;;;2.63;1.95;;;;;;;;;;5005278;28;20114;-83
2023/09/08 12:11:41;;;;;;;3.13;2.30;;;;;;;;;;5007252;28;20125;-86
2023/09/08 12:14:09;;;;;;;3.40;2.03;;;37.70;28.20;;;;;;5012935;28;20033;-80
2023/09/08 12:16:35;;;;;;;2.80;2.20;;;;;;;;;;5015495;28;20053;-85
2023/09/08 12:19:01;;;;;;;2.95;2.13;;;;;;;;;;5015182;28;20124;-93
2023/09/08 12:21:27;;;;;;;3.25;2.25;;;;;;;;;;5011244;28;20507;-88
2023/09/08 12:23:53;;;;;;;2.97;2.03;;;37.30;28.40;;;;;;5017264;28;20018;-90
2023/09/08 12:26:19;;;;;;;;;;;37.40;28.80;;;;;;5010530;28;20030;-89
2023/09/08 12:28:45;;;;;;;;;;;37.00;28.90;;;;;;5013091;28;19920;-90
2023/09/08 12:31:13;;;;;;;2.38;1.70;;;36.80;29.00;;;;;;5021558;28;19927;-91
2023/09/08 12:33:39;;;;;;;4.43;2.22;;;;;;;;;;5012787;28;20033;-89
2023/09/08 12:36:18;;;;;;;6.68;2.97;;;36.70;39.20;;;;;;5011347;28;20030;-90
2023/09/08 12:38:51;;;;;;;3.28;1.90;;;36.50;33.40;;;;;;5007324;28;20080;-90
2023/09/08 12:41:18;;;;;;;4.80;1.90;;;;;;;;;;5018679;28;20415;-92
2023/09/08 12:43:44;;;;;;;3.08;2.28;;;;;;;;;;5023338;28;20025;-90
2023/09/08 12:46:10;;;;;;;8.82;2.15;;;;;;;;;;5021062;28;20030;-84
2023/09/08 12:48:36;;;;;;;4.50;2.42;;;;;;;;;;5006274;28;20053;-84
2023/09/08 12:51:04;;;;;;;5.40;2.00;;;36.60;29.00;;;;;;5007630;28;20521;-84
2023/09/08 12:53:35;;;;;;;3.65;1.95;;;36.40;29.10;;;;;;5016552;28;20165;-84
2023/09/08 12:56:01;;;;;;;2.47;2.13;;;;;;;;;;5011324;28;20034;-87
2023/09/08 12:58:28;;;;;;;2.97;2.20;;;;;;;;;;5013377;28;20035;-90
2023/09/08 13:00:54;;;;;;;2.53;1.67;;;;;;;;;;5016298;28;20034;-91
2023/09/08 13:03:20;;;;;;;3.10;2.08;;;;;;;;;;5013254;28;20030;-91
2023/09/08 13:05:46;;;;;;;4.10;2.85;;;35.80;32.90;;;;;;5010726;28;20037;-91
2023/09/08 13:08:15;;;;;;;3.87;2.37;;;;;;;;;;5015730;28;20040;-91
2023/09/08 13:10:41;;;;;;;2.88;2.20;;;;;;;;;;5015000;28;20034;-90
2023/09/08 13:13:07;;;;;;;3.88;2.47;;;;;;;;;;5020922;28;20030;-92
2023/09/08 13:15:33;;;;;;;5.18;2.58;;;;;;;;;;5010342;28;20088;-89
2023/09/08 13:17:59;;;;;;;3.35;2.42;;;;;;;;;;5021551;28;20060;-89
2023/09/08 13:20:25;;;;;;;3.03;2.05;;;;;;;;;;5014970;28;20025;-90
2023/09/08 13:22:51;;;;;;;5.50;2.42;;;;;;;;;;5018322;28;20105;-91
2023/09/08 13:25:17;;;;;;;3.45;2.35;;;;;;;;;;5019555;28;20040;-93
2023/09/08 13:27:43;;;;;;;6.05;2.65;;;;;;;;;;5020866;28;20083;-89
2023/09/08 13:30:13;;;;;;;6.15;2.42;;;34.30;32.40;;;;;;5005862;28;20041;-91
2023/09/08 13:32:39;;;;;;;4.07;1.88;;;;;;;;;;5015162;28;20037;-92
2023/09/08 13:35:06;;;;;;;3.72;2.58;;;33.90;43.80;;;;;;5015757;28;20029;-91
2023/09/08 13:37:34;;;;;;;2.75;1.98;;;;;;;;;;5010392;28;20038;-86
2023/09/08 13:40:00;;;;;;;2.92;2.28;;;;;;;;;;5006091;28;20396;-89
2023/09/08 13:42:26;;;;;;;2.60;2.33;;;;;;;;;;5014513;28;20040;-90
2023/09/08 13:44:52;;;;;;;3.25;2.30;;;;;;;;;;5018535;28;20037;-92
2023/09/08 13:47:18;;;;;;;3.40;2.13;;;;;;;;;;5014457;28;20038;-88
2023/09/08 13:49:44;;;;;;;3.55;1.70;;;;;;;;;;5000881;28;20447;-90
2023/09/08 13:52:10;;;;;;;4.80;2.33;;;;;;;;;;5001641;28;20120;-90
2023/09/08 13:54:36;;;;;;;2.60;2.10;;;;;;;;;;5019341;28;20034;-89
2023/09/08 13:57:03;;;;;;;5.17;2.60;;;33.20;32.30;;;;;;5009712;28;20048;-91